Time;durP1;ratioP1;P1;durP2;ratioP2;P2;SDS_P1;SDS_P2;PMS_P1;PMS_P2;Temp;Humidity;BMP_temperature;BMP_pressure;BME280_temperature;BME280_humidity;BME280_pressure;Samples;Min_cycle;Max_cycle;Signal;HPM_P1;HPM_P2
2022/08/24 00:01:52;;;;;;;4.23;3.50;;;;;;;19.03;62.77;101922.09;5033190;28;20479;-48
2022/08/24 00:04:20;;;;;;;3.50;3.20;;;;;;;19.00;63.54;101920.66;5033197;28;20440;-46
2022/08/24 00:06:48;;;;;;;3.97;3.67;;;;;;;18.99;64.16;101918.19;5033323;28;20439;-54
2022/08/24 00:09:16;;;;;;;5.43;3.50;;;;;;;18.97;64.11;101925.69;5032667;28;20464;-49
2022/08/24 00:11:44;;;;;;;4.10;3.80;;;;;;;18.95;64.72;101922.38;5033058;28;20456;-54
2022/08/24 00:14:13;;;;;;;3.40;3.30;;;;;;;18.93;65.47;101928.03;5032928;28;20435;-51
2022/08/24 00:16:41;;;;;;;5.43;3.50;;;;;;;18.94;65.62;101926.97;5032985;28;20439;-48
2022/08/24 00:19:09;;;;;;;4.23;3.30;;;;;;;18.92;65.66;101929.06;5032699;28;20464;-46
2022/08/24 00:21:37;;;;;;;3.70;3.30;;;;;;;18.92;66.11;101925.53;5032802;28;20479;-47
2022/08/24 00:24:05;;;;;;;3.50;3.17;;;;;;;18.90;66.69;101930.34;5032733;28;20447;-45
2022/08/24 00:26:34;;;;;;;3.93;3.27;;;;;;;18.87;68.27;101933.50;5032976;28;20439;-46
2022/08/24 00:29:01;;;;;;;3.63;3.37;;;;;;;18.86;68.66;101929.94;5031869;28;20460;-50
2022/08/24 00:31:35;;;;;;;3.63;3.37;;;;;;;18.85;68.11;101922.06;5033267;28;20444;-55
2022/08/24 00:34:03;;;;;;;3.30;3.00;;;;;;;18.84;68.11;101928.53;5032528;28;20948;-53
2022/08/24 00:36:31;;;;;;;4.17;3.90;;;;;;;18.79;68.55;101924.59;5032729;28;20432;-52
2022/08/24 00:38:59;;;;;;;5.13;4.13;;;;;;;18.78;70.35;101925.69;5032122;28;20464;-55
2022/08/24 00:41:27;;;;;;;4.00;3.60;;;;;;;18.77;70.39;101926.72;5032640;28;20475;-52
2022/08/24 00:43:57;;;;;;;4.23;3.93;;;;;;;18.75;70.74;101923.41;5032276;28;20442;-51
2022/08/24 00:46:28;;;;;;;3.83;3.37;;;;;;;18.73;71.27;101922.78;5032565;28;20432;-54
2022/08/24 00:49:02;;;;;;;4.67;4.17;;;;;;;18.73;71.68;101921.97;5032179;28;20436;-53
2022/08/24 00:51:36;;;;;;;4.20;3.80;;;;;;;18.72;71.63;101914.91;5032039;28;20451;-55
2022/08/24 00:54:07;;;;;;;4.20;3.90;;;;;;;18.70;71.96;101906.19;5032301;28;20463;-50
2022/08/24 00:56:39;;;;;;;4.10;3.90;;;;;;;18.67;73.34;101912.03;5032661;28;20443;-50
2022/08/24 00:59:12;;;;;;;3.97;3.67;;;;;;;18.66;73.08;101919.34;5031949;28;20463;-50
2022/08/24 01:01:40;;;;;;;4.87;4.40;;;;;;;18.64;73.30;101920.59;5031953;28;20846;-51
2022/08/24 01:04:14;;;;;;;3.90;3.60;;;;;;;18.63;73.14;101918.94;5031938;28;20442;-55
2022/08/24 01:06:42;;;;;;;4.60;4.30;;;;;;;18.61;73.58;101927.25;5031999;28;20440;-52
2022/08/24 01:09:10;;;;;;;4.17;3.90;;;;;;;18.59;74.06;101920.44;5031952;28;20464;-54
2022/08/24 01:11:38;;;;;;;4.60;4.20;;;;;;;18.56;74.46;101916.28;5032015;28;20555;-52
2022/08/24 01:14:06;;;;;;;6.27;4.20;;;;;;;18.54;74.51;101921.09;5031841;28;20448;-55
2022/08/24 01:19:31;;;;;;;4.70;4.40;;;;;;;18.45;76.08;101927.78;5031703;28;20816;-54
2022/08/24 01:22:10;;;;;;;7.00;4.43;;;;;;;18.40;76.33;101918.69;5031749;28;20476;-54
2022/08/24 01:24:40;;;;;;;4.90;4.50;;;;;;;18.38;76.45;101921.59;5031917;28;20447;-50
2022/08/24 01:27:10;;;;;;;5.83;4.90;;;;;;;18.35;76.72;101935.53;5031968;28;20438;-52
2022/08/24 01:29:39;;;;;;;4.23;3.93;;;;;;;18.32;76.69;101933.28;5031404;28;20464;-51
2022/08/24 01:32:07;;;;;;;4.50;4.10;;;;;;;18.28;76.88;101942.84;5031636;28;20459;-54
2022/08/24 01:34:35;;;;;;;4.60;4.20;;;;;;;18.23;77.20;101943.53;5031757;28;20443;-53
2022/08/24 01:37:04;;;;;;;4.47;4.10;;;;;;;18.20;77.24;101945.81;5031541;28;20459;-55
2022/08/24 01:39:36;;;;;;;4.53;4.20;;;;;;;18.15;77.29;101949.19;5030921;28;20448;-53
2022/08/24 01:42:05;;;;;;;4.87;4.57;;;;;;;18.11;77.48;101947.97;5031694;28;20483;-52
2022/08/24 01:44:35;;;;;;;5.00;4.60;;;;;;;18.07;77.83;101943.22;5031803;28;20436;-52
2022/08/24 01:47:05;;;;;;;4.30;4.00;;;;;;;18.02;78.42;101951.94;5031689;28;20428;-54
2022/08/24 01:49:36;;;;;;;5.10;4.23;;;;;;;17.99;78.55;101946.16;5031211;28;20821;-53
2022/08/24 01:52:06;;;;;;;4.40;4.00;;;;;;;17.95;78.82;101951.16;5031009;28;20462;-50
2022/08/24 01:54:34;;;;;;;4.27;3.80;;;;;;;17.92;78.98;101948.09;5031522;28;20428;-54
2022/08/24 01:57:02;;;;;;;4.10;3.90;;;;;;;17.90;79.21;101950.97;5031679;28;20438;-53
2022/08/24 01:59:31;;;;;;;4.80;4.40;;;;;;;17.87;79.84;101953.28;5031190;28;20460;-54
2022/08/24 02:02:04;;;;;;;4.80;4.50;;;;;;;17.83;79.82;101950.16;5031132;28;20980;-54
2022/08/24 02:04:33;;;;;;;4.53;4.30;;;;;;;17.79;79.87;101950.84;5031696;28;20451;-50
2022/08/24 02:07:02;;;;;;;5.20;4.90;;;;;;;17.75;80.16;101952.28;5031555;28;20432;-53
2022/08/24 02:09:30;;;;;;;4.30;4.00;;;;;;;17.71;80.39;101951.91;5031211;28;20492;-55
2022/08/24 02:11:59;;;;;;;8.00;4.50;;;;;;;17.66;81.16;101954.41;5031196;28;20505;-50
2022/08/24 02:14:28;;;;;;;4.80;4.37;;;;;;;17.63;81.57;101952.13;5031375;28;20443;-52
2022/08/24 02:17:03;;;;;;;5.60;4.57;;;;;;;17.60;82.11;101958.78;5031267;28;20471;-54
2022/08/24 02:19:31;;;;;;;4.80;4.50;;;;;;;17.58;82.31;101947.41;5031201;28;20459;-55
2022/08/24 02:21:59;;;;;;;12.13;5.53;;;;;;;17.52;82.71;101944.69;5031256;28;20459;-54
2022/08/24 02:24:27;;;;;;;5.90;4.70;;;;;;;17.50;83.46;101954.88;5031347;28;20825;-55
2022/08/24 02:26:54;;;;;;;4.80;4.50;;;;;;;17.48;84.40;101956.94;5031426;28;20443;-53
2022/08/24 02:29:22;;;;;;;5.57;5.17;;;;;;;17.45;84.03;101957.34;5030763;28;20471;-53
2022/08/24 02:31:50;;;;;;;8.20;5.13;;;;;;;17.43;84.94;101954.06;5031292;28;20817;-53
2022/08/24 02:34:20;;;;;;;4.63;4.20;;;;;;;17.38;85.58;101951.97;5031245;28;20451;-53
2022/08/24 02:36:47;;;;;;;5.40;4.27;;;;;;;17.35;86.34;101952.41;5031285;28;20967;-51
2022/08/24 02:39:15;;;;;;;6.23;4.40;;;;;;;17.32;86.38;101957.41;5030822;28;20994;-55
2022/08/24 02:41:43;;;;;;;4.60;4.20;;;;;;;17.31;86.55;101961.97;5031088;28;20822;-55
2022/08/24 02:44:11;;;;;;;5.80;5.20;;;;;;;17.28;87.29;101964.25;5030798;28;20575;-52
2022/08/24 02:46:38;;;;;;;5.43;4.73;;;;;;;17.25;88.25;101965.50;5031036;28;20436;-52
2022/08/24 02:49:06;;;;;;;6.13;4.67;;;;;;;17.23;88.84;101964.91;5030872;28;20470;-51
2022/08/24 02:51:43;;;;;;;5.10;4.67;;;;;;;17.20;89.23;101962.63;5031407;28;20448;-53
2022/08/24 02:54:16;;;;;;;4.43;4.20;;;;;;;17.17;89.80;101970.31;5034434;28;21003;-52
2022/08/24 02:56:44;;;;;;;5.10;4.80;;;;;;;17.17;90.52;101980.03;5034719;28;20432;-52
2022/08/24 02:59:12;;;;;;;5.13;4.70;;;;;;;17.15;90.44;101971.31;5034213;28;20482;-51
2022/08/24 03:01:40;;;;;;;5.73;5.13;;;;;;;17.17;90.55;101983.78;5034325;28;20494;-51
2022/08/24 03:04:08;;;;;;;5.10;4.70;;;;;;;17.17;90.53;101981.09;5034180;28;20527;-54
2022/08/24 03:06:36;;;;;;;5.17;4.63;;;;;;;17.14;90.44;101969.66;5034322;28;20432;-50
2022/08/24 03:09:05;;;;;;;5.53;5.03;;;;;;;17.13;91.20;101973.41;5033783;28;20459;-50
2022/08/24 03:11:33;;;;;;;4.83;4.50;;;;;;;17.13;91.21;101976.09;5034152;28;20467;-50
2022/08/24 03:14:01;;;;;;;4.97;4.53;;;;;;;17.13;91.06;101978.81;5034153;28;20429;-54
2022/08/24 03:16:30;;;;;;;7.30;4.83;;;;;;;17.12;91.23;101969.06;5034029;28;20444;-49
2022/08/24 03:18:58;;;;;;;7.00;4.77;;;;;;;17.11;91.27;101969.28;5033929;28;22625;-55
2022/08/24 03:21:26;;;;;;;6.00;4.67;;;;;;;17.07;91.96;101966.16;5033661;28;20464;-54
2022/08/24 03:23:54;;;;;;;5.00;4.57;;;;;;;17.07;92.62;101968.03;5034042;28;20502;-55
2022/08/24 03:26:23;;;;;;;8.07;4.67;;;;;;;17.06;93.01;101963.66;5034101;28;20432;-53
2022/08/24 03:28:51;;;;;;;4.40;4.10;;;;;;;17.06;92.96;101969.06;5033930;28;20436;-51
2022/08/24 03:31:19;;;;;;;7.13;5.23;;;;;;;17.04;93.29;101977.38;5034045;28;20464;-54
2022/08/24 03:33:46;;;;;;;5.70;4.77;;;;;;;17.05;93.72;101973.59;5034141;28;20515;-51
2022/08/24 03:36:14;;;;;;;4.97;4.60;;;;;;;17.02;93.25;101967.84;5033893;28;20436;-52
2022/08/24 03:38:42;;;;;;;6.27;5.60;;;;;;;17.02;93.20;101974.03;5033319;28;20439;-49
2022/08/24 03:41:10;;;;;;;6.10;5.50;;;;;;;17.01;93.66;101969.69;5033767;28;20448;-52
2022/08/24 03:43:47;;;;;;;5.53;5.20;;;;;;;17.00;93.67;101967.19;5033379;28;20476;-50
2022/08/24 03:46:19;;;;;;;5.80;5.40;;;;;;;16.97;93.33;101957.66;5033666;28;20432;-54
2022/08/24 03:48:47;;;;;;;7.17;5.90;;;;;;;16.94;94.04;101958.09;5033104;28;20435;-53
2022/08/24 03:51:17;;;;;;;5.83;5.23;;;;;;;16.94;94.09;101954.56;5033529;28;20977;-55
2022/08/24 03:53:45;;;;;;;6.13;5.60;;;;;;;16.92;94.62;101957.47;5033369;28;20425;-54
2022/08/24 03:56:13;;;;;;;5.67;4.83;;;;;;;16.93;94.08;101958.31;5033558;28;20523;-52
2022/08/24 03:58:42;;;;;;;5.40;4.97;;;;;;;16.95;94.29;101967.00;5032971;28;20440;-53
2022/08/24 04:01:10;;;;;;;5.57;5.17;;;;;;;16.95;93.56;101962.44;5033085;28;20456;-52
2022/08/24 04:03:40;;;;;;;5.27;4.87;;;;;;;16.95;92.80;101967.84;5032912;28;20478;-52
2022/08/24 04:06:09;;;;;;;6.17;5.57;;;;;;;16.93;92.98;101964.53;5033249;28;20454;-52
2022/08/24 04:08:39;;;;;;;8.20;5.00;;;;;;;16.94;93.53;101974.25;5032731;28;20515;-52
2022/08/24 04:11:11;;;;;;;5.93;5.40;;;;;;;16.93;93.30;101975.31;5032942;28;20448;-49
2022/08/24 04:13:39;;;;;;;5.87;5.47;;;;;;;16.95;92.84;101991.25;5032969;28;20798;-51
2022/08/24 04:16:11;;;;;;;5.57;5.03;;;;;;;16.96;92.48;102001.00;5033197;28;20443;-55
2022/08/24 04:18:40;;;;;;;7.17;5.57;;;;;;;16.97;92.19;102002.63;5032663;28;20428;-53
2022/08/24 04:21:16;;;;;;;9.27;5.30;;;;;;;16.99;92.10;101992.50;5033103;28;20452;-54
2022/08/24 04:23:43;;;;;;;5.60;5.20;;;;;;;17.02;92.57;101997.47;5032712;28;20895;-52
2022/08/24 04:26:15;;;;;;;6.53;5.10;;;;;;;17.04;92.21;102000.78;5032764;28;20467;-47
2022/08/24 04:28:59;;;;;;;5.53;5.00;;;;;;;17.06;92.49;101990.63;5032629;28;20479;-52
2022/08/24 04:31:29;;;;;;;6.53;6.03;;;;;;;17.09;92.42;101996.41;5032752;28;20479;-52
2022/08/24 04:33:57;;;;;;;5.80;4.90;;;;;;;17.14;92.68;101999.31;5032630;28;20424;-54
2022/08/24 04:36:25;;;;;;;5.33;4.80;;;;;;;17.22;92.67;101992.88;5032578;28;20925;-52
2022/08/24 04:38:52;;;;;;;5.00;4.70;;;;;;;17.25;92.31;101991.63;5032587;28;20825;-48
2022/08/24 04:41:20;;;;;;;5.00;4.60;;;;;;;17.31;92.55;101998.88;5032525;28;20467;-52
2022/08/24 04:43:58;;;;;;;5.40;5.00;;;;;;;17.36;92.54;101997.22;5032375;28;20475;-53
2022/08/24 04:46:28;;;;;;;5.60;5.23;;;;;;;17.40;93.07;102001.16;5032705;28;20790;-52
2022/08/24 04:48:56;;;;;;;7.23;5.57;;;;;;;17.47;93.03;101998.44;5032071;28;20435;-55
2022/08/24 04:51:23;;;;;;;5.97;5.40;;;;;;;17.52;93.14;102001.31;5032421;28;20459;-52
2022/08/24 04:53:51;;;;;;;5.50;5.20;;;;;;;17.59;92.92;101999.47;5031944;28;20432;-52
2022/08/24 04:56:22;;;;;;;5.30;4.87;;;;;;;17.70;93.03;101998.81;5032385;28;20436;-52
2022/08/24 04:58:50;;;;;;;5.77;5.27;;;;;;;17.93;92.25;101999.13;5031985;28;20486;-53
2022/08/24 05:01:20;;;;;;;5.13;4.83;;;;;;;18.54;93.13;101998.63;5032035;28;20490;-50
2022/08/24 05:03:52;;;;;;;7.03;4.93;;;;;;;19.03;92.82;101998.63;5031802;28;20484;-53
2022/08/24 05:06:21;;;;;;;5.53;4.77;;;;;;;19.88;92.88;101994.19;5032514;28;20442;-55
2022/08/24 05:08:49;;;;;;;5.13;4.73;;;;;;;20.77;87.85;101998.75;5031620;28;20945;-55
2022/08/24 05:11:19;;;;;;;4.90;4.50;;;;;;;21.64;82.96;101994.28;5032031;28;20458;-55
2022/08/24 05:13:47;;;;;;;4.60;4.27;;;;;;;22.48;79.02;101999.78;5031823;28;20428;-54
2022/08/24 05:16:16;;;;;;;5.93;4.47;;;;;;;23.21;73.53;101996.06;5031398;28;20435;-54
2022/08/24 05:18:45;;;;;;;5.13;4.47;;;;;;;23.94;70.24;102000.34;5031419;28;21011;-55
2022/08/24 05:21:17;;;;;;;5.73;4.70;;;;;;;24.52;65.93;101994.97;5031854;28;20458;-54
2022/08/24 05:23:46;;;;;;;4.00;3.80;;;;;;;25.12;62.96;101991.09;5031654;28;20955;-55
2022/08/24 05:26:16;;;;;;;4.07;3.87;;;;;;;25.54;58.76;101983.72;5031977;28;20443;-55
2022/08/24 05:28:45;;;;;;;4.53;4.17;;;;;;;25.55;58.07;101979.94;5031357;28;20820;-52
2022/08/24 05:31:15;;;;;;;4.00;3.80;;;;;;;25.83;56.43;101984.97;5031810;28;20452;-52
2022/08/24 05:33:43;;;;;;;4.30;4.00;;;;;;;26.20;56.02;101981.25;5031717;28;20443;-56
2022/08/24 05:36:18;;;;;;;3.77;3.57;;;;;;;26.65;56.07;101985.94;5031916;28;20438;-55
2022/08/24 05:38:47;;;;;;;4.13;3.83;;;;;;;26.76;53.55;101985.66;5031302;28;20427;-55
2022/08/24 05:41:15;;;;;;;6.80;4.50;;;;;;;26.97;52.21;101988.44;5031594;28;20459;-56
2022/08/24 05:43:43;;;;;;;4.80;3.80;;;;;;;26.98;52.43;101990.88;5031656;28;20435;-56
2022/08/24 05:46:12;;;;;;;4.77;4.37;;;;;;;27.20;52.29;101991.41;5031586;28;20511;-55
2022/08/24 05:48:39;;;;;;;4.00;3.70;;;;;;;27.17;51.63;102000.16;5031389;28;20432;-54
2022/08/24 05:51:08;;;;;;;4.67;4.27;;;;;;;27.45;49.57;102005.03;5031807;28;20451;-55
2022/08/24 05:53:39;;;;;;;4.47;4.07;;;;;;;27.51;50.78;102005.84;5031181;28;20424;-55
2022/08/24 05:56:09;;;;;;;3.70;3.50;;;;;;;27.49;49.85;102005.31;5031816;28;20797;-53
2022/08/24 05:58:38;;;;;;;7.53;3.70;;;;;;;27.83;48.12;102000.81;5031409;28;20921;-54
2022/08/24 06:01:07;;;;;;;4.47;3.57;;;;;;;28.07;49.17;101998.25;5031102;28;20462;-53
2022/08/24 06:03:35;;;;;;;5.10;3.53;;;;;;;28.32;47.65;102006.28;5031392;28;20952;-52
2022/08/24 06:06:05;;;;;;;4.13;3.73;;;;;;;28.25;46.88;102002.25;5031344;28;20475;-54
2022/08/24 06:08:34;;;;;;;3.70;3.40;;;;;;;28.45;47.46;102004.84;5031531;28;20462;-55
2022/08/24 06:11:09;;;;;;;4.73;4.07;;;;;;;28.63;45.18;102006.91;5031217;28;20455;-55
2022/08/24 06:13:38;;;;;;;6.87;4.37;;;;;;;28.72;46.93;102012.63;5031177;28;20442;-52
2022/08/24 06:16:07;;;;;;;3.27;3.10;;;;;;;28.99;46.27;102015.69;5031428;28;20196;-56
2022/08/24 06:18:49;;;;;;;5.73;3.30;;;;;;;28.63;43.94;102009.66;5030882;28;20439;-56
2022/08/24 06:21:19;;;;;;;4.37;4.03;;;;;;;28.72;46.76;102012.63;5031414;28;20213;-56
2022/08/24 06:23:47;;;;;;;5.43;3.97;;;;;;;28.55;45.64;102021.25;5031309;28;20546;-53
2022/08/24 06:29:03;;;;;;;3.43;3.13;;;;;;;29.09;46.88;102024.63;5034639;28;20227;-55
2022/08/24 06:31:35;;;;;;;3.63;3.27;;;;;;;29.19;45.19;102020.97;5035251;28;20466;-54
2022/08/24 06:34:09;;;;;;;3.70;3.50;;;;;;;29.20;44.77;102019.03;5035193;28;20204;-51
2022/08/24 06:36:36;;;;;;;5.43;3.43;;;;;;;29.35;45.77;102027.16;5035013;28;20212;-55
2022/08/24 06:39:07;;;;;;;4.33;3.93;;;;;;;29.18;43.72;102027.56;5034482;28;20492;-55
2022/08/24 06:41:38;;;;;;;4.60;3.20;;;;;;;29.03;45.68;102028.53;5034839;28;20233;-53
2022/08/24 06:44:07;;;;;;;4.00;3.70;;;;;;;29.01;45.02;102028.00;5035089;28;20201;-52
2022/08/24 06:46:36;;;;;;;3.90;3.60;;;;;;;28.96;45.92;102030.81;5034870;28;20555;-55
2022/08/24 06:49:04;;;;;;;4.10;3.80;;;;;;;29.25;45.87;102036.31;5034427;28;20586;-54
2022/08/24 06:51:32;;;;;;;4.33;3.93;;;;;;;29.70;44.09;102039.66;5034768;28;20392;-56
2022/08/24 06:54:00;;;;;;;3.67;3.37;;;;;;;29.89;44.81;102029.56;5034455;28;20192;-56
2022/08/24 06:56:27;;;;;;;4.30;3.90;;;;;;;29.83;43.21;102031.56;5034753;28;20566;-56
2022/08/24 06:58:56;;;;;;;3.60;3.30;;;;;;;30.05;43.53;102026.31;5033879;28;20204;-56
2022/08/24 07:01:27;;;;;;;5.07;4.20;;;;;;;30.25;43.89;102044.47;5034324;28;20235;-56
2022/08/24 07:03:55;;;;;;;4.27;3.33;;;;;;;30.06;43.27;102033.44;5034327;28;20235;-56
2022/08/24 07:06:23;;;;;;;4.00;3.17;;;;;;;30.03;43.58;102045.03;5034652;28;20217;-54
2022/08/24 07:08:52;;;;;;;3.93;2.77;;;;;;;30.03;44.18;102044.22;5034392;28;20201;-56
2022/08/24 07:11:20;;;;;;;3.50;3.20;;;;;;;29.84;43.92;102038.69;5034400;28;20221;-56
2022/08/24 07:13:49;;;;;;;6.20;3.53;;;;;;;29.47;43.32;102039.38;5034271;28;20197;-54
2022/08/24 07:16:19;;;;;;;4.50;3.57;;;;;;;29.38;44.57;102043.06;5034538;28;20226;-55
2022/08/24 07:18:47;;;;;;;3.33;3.03;;;;;;;29.66;44.25;102053.16;5033708;28;20212;-55
2022/08/24 07:21:18;;;;;;;3.83;3.50;;;;;;;29.38;44.69;102048.56;5033966;28;20780;-54
2022/08/24 07:23:46;;;;;;;5.27;3.63;;;;;;;29.35;43.51;102051.88;5034200;28;20271;-56
2022/08/24 07:26:18;;;;;;;3.97;3.50;;;;;;;29.11;43.75;102051.81;5034235;28;20227;-56
2022/08/24 07:28:48;;;;;;;4.13;3.50;;;;;;;28.78;44.17;102052.66;5033567;28;20464;-54
2022/08/24 07:31:17;;;;;;;4.03;3.73;;;;;;;28.55;44.68;102052.22;5034355;28;20248;-49
2022/08/24 07:33:45;;;;;;;4.93;3.87;;;;;;;28.40;45.36;102044.13;5033520;28;20224;-50
2022/08/24 07:36:13;;;;;;;7.53;3.70;;;;;;;27.97;45.78;102053.09;5034002;28;20193;-50
2022/08/24 07:38:50;;;;;;;3.30;3.00;;;;;;;28.00;46.12;102055.28;5033082;28;20810;-48
2022/08/24 07:41:19;;;;;;;4.00;3.60;;;;;;;27.65;46.15;102058.16;5033706;28;20458;-51
2022/08/24 07:44:07;;;;;;;4.50;3.37;;;;;;;27.47;46.19;102059.56;5033297;28;20945;-46
2022/08/24 07:46:37;;;;;;;4.17;3.87;;;;;;;27.13;46.54;102062.06;5033757;28;20471;-46
2022/08/24 07:49:06;;;;;;;3.83;3.53;;;;;;;26.71;46.90;102065.03;5033382;28;20491;-47
2022/08/24 07:51:53;;;;;;;4.87;4.07;;;;;;;26.31;47.77;102065.75;5033630;28;20448;-51
2022/08/24 07:54:21;;;;;;;3.77;3.47;;;;;;;26.11;49.13;102071.16;5033290;28;20440;-48
2022/08/24 07:56:49;;;;;;;6.03;3.80;;;;;;;26.16;48.78;102075.84;5033306;28;20515;-49
2022/08/24 07:59:17;;;;;;;4.03;3.73;;;;;;;26.15;48.94;102079.69;5033125;28;20470;-52
2022/08/24 08:01:46;;;;;;;4.70;3.30;;;;;;;26.08;49.22;102074.41;5033186;28;20470;-48
2022/08/24 08:04:15;;;;;;;3.63;3.33;;;;;;;26.13;49.41;102081.84;5033287;28;20440;-50
2022/08/24 08:06:43;;;;;;;4.87;4.03;;;;;;;25.83;49.11;102077.06;5033137;28;20475;-51
2022/08/24 08:09:10;;;;;;;7.43;3.83;;;;;;;26.08;49.65;102081.78;5032593;28;20463;-51
2022/08/24 08:11:38;;;;;;;4.40;3.67;;;;;;;26.11;48.82;102081.25;5033239;28;20447;-51
2022/08/24 08:14:06;;;;;;;4.50;4.10;;;;;;;26.16;48.42;102084.88;5033088;28;20431;-48
2022/08/24 08:16:33;;;;;;;3.93;3.50;;;;;;;26.65;48.46;102079.81;5033147;28;20435;-50
2022/08/24 08:19:02;;;;;;;4.10;3.37;;;;;;;26.90;48.00;102081.78;5032983;28;20447;-49
2022/08/24 08:24:27;;;;;;;4.50;4.20;;;;;;;26.85;46.03;102077.09;5032986;28;20439;-53
2022/08/24 08:26:56;;;;;;;5.30;3.57;;;;;;;26.88;46.57;102083.97;5032851;28;20472;-48
2022/08/24 08:29:24;;;;;;;4.23;3.83;;;;;;;26.75;46.17;102085.28;5032570;28;20467;-47
2022/08/24 08:31:52;;;;;;;3.97;3.57;;;;;;;26.73;46.65;102075.72;5032539;28;20985;-49
2022/08/24 08:34:21;;;;;;;3.40;3.13;;;;;;;26.68;47.04;102092.13;5032895;28;20430;-50
2022/08/24 08:36:49;;;;;;;3.63;3.43;;;;;;;26.50;47.25;102079.78;5032903;28;20793;-49
2022/08/24 08:39:18;;;;;;;3.67;3.37;;;;;;;26.60;47.27;102079.81;5032321;28;20460;-49
2022/08/24 08:42:04;;;;;;;3.43;3.20;;;;;;;26.29;46.54;102078.91;5032523;28;20458;-53
2022/08/24 08:44:52;;;;;;;3.90;3.60;;;;;;;26.35;47.26;102082.47;5032650;28;20439;-48
2022/08/24 08:47:42;;;;;;;5.00;4.10;;;;;;;26.49;47.00;102071.84;5032800;28;20841;-49
2022/08/24 08:50:20;;;;;;;3.93;3.63;;;;;;;26.68;46.87;102067.47;5031519;28;20463;-47
2022/08/24 08:53:17;;;;;;;3.93;3.63;;;;;;;26.92;45.49;102071.38;5032020;28;20806;-49
2022/08/24 08:55:52;;;;;;;8.13;3.87;;;;;;;26.93;45.98;102070.28;5012713;28;20443;-48
2022/08/24 08:58:44;;;;;;;3.50;3.30;;;;;;;27.08;44.82;102070.28;5012910;28;20424;-50
2022/08/24 09:01:35;;;;;;;3.70;3.43;;;;;;;27.18;45.19;102067.50;5012251;28;20937;-52
2022/08/24 09:04:39;;;;;;;4.57;4.10;;;;;;;27.17;43.81;102060.41;5012442;28;20443;-46
2022/08/24 09:07:20;;;;;;;5.20;3.50;;;;;;;26.99;44.58;102065.63;5012430;28;20508;-49
2022/08/24 09:10:04;;;;;;;3.20;3.00;;;;;;;27.11;44.29;102074.38;5012012;28;20468;-48
2022/08/24 09:12:48;;;;;;;3.63;3.33;;;;;;;27.15;43.06;102070.81;5012149;28;20470;-49
2022/08/24 09:15:40;;;;;;;3.33;3.13;;;;;;;27.32;43.88;102073.28;5012463;28;20440;-49
2022/08/24 09:18:30;;;;;;;5.90;3.83;;;;;;;27.40;44.03;102079.00;5012211;28;20439;-48
2022/08/24 09:21:27;;;;;;;3.60;3.40;;;;;;;27.32;43.97;102078.75;5011406;28;20472;-49
2022/08/24 09:24:21;;;;;;;3.60;3.40;;;;;;;27.50;43.49;102069.97;5011893;28;20436;-47
2022/08/24 09:26:59;;;;;;;4.20;3.87;;;;;;;27.57;42.70;102070.50;5012014;28;20472;-46
2022/08/24 09:29:44;;;;;;;8.27;3.97;;;;;;;27.56;42.78;102060.66;5011708;28;20464;-50
2022/08/24 09:32:31;;;;;;;3.00;2.90;;;;;;;27.69;43.20;102064.69;5012051;28;20456;-47
2022/08/24 09:35:02;;;;;;;4.10;3.80;;;;;;;27.97;43.33;102070.38;5012321;28;20436;-49
2022/08/24 09:37:33;;;;;;;3.47;3.17;;;;;;;27.90;40.89;102063.53;5012171;28;20436;-51
2022/08/24 09:40:17;;;;;;;5.50;2.90;;;;;;;27.97;40.78;102061.31;5011631;28;20464;-49
2022/08/24 09:43:10;;;;;;;3.33;3.13;;;;;;;28.21;41.02;102059.59;5011663;28;20487;-49
2022/08/24 09:45:58;;;;;;;5.07;3.60;;;;;;;28.37;41.00;102065.81;5012194;28;20436;-46
2022/08/24 09:49:07;;;;;;;5.40;3.93;;;;;;;28.15;40.56;102068.13;5012025;28;20428;-51
2022/08/24 09:52:31;;;;;;;4.10;3.90;;;;;;;28.06;39.24;102056.09;5014881;28;20979;-48
2022/08/24 09:55:40;;;;;;;3.70;3.40;;;;;;;27.84;40.77;102059.16;5026518;28;20439;-52
2022/08/24 09:58:18;;;;;;;3.97;3.70;;;;;;;28.12;40.83;102060.47;5006397;28;20575;-47
2022/08/24 10:00:48;;;;;;;6.20;3.50;;;;;;;28.24;40.76;102059.03;5031343;28;20550;-49
2022/08/24 10:03:28;;;;;;;3.97;3.57;;;;;;;28.22;38.90;102066.72;5035397;28;20929;-53
2022/08/24 10:06:25;;;;;;;4.07;3.87;;;;;;;28.64;39.48;102062.63;5035734;28;20431;-53
2022/08/24 10:09:09;;;;;;;4.73;3.13;;;;;;;28.74;38.84;102046.91;5034972;28;20423;-50
2022/08/24 10:11:45;;;;;;;3.73;3.63;;;;;;;28.71;38.35;102066.69;5035414;28;20462;-47
2022/08/24 10:14:24;;;;;;;4.00;3.70;;;;;;;28.56;38.77;102058.53;5035192;28;20445;-49
2022/08/24 10:17:09;;;;;;;3.20;3.10;;;;;;;28.34;38.38;102058.16;5035368;28;20423;-52
2022/08/24 10:19:49;;;;;;;3.83;3.53;;;;;;;28.52;38.26;102060.22;5034922;28;20463;-51
2022/08/24 10:22:28;;;;;;;3.50;3.30;;;;;;;28.41;37.48;102055.91;5034944;28;20968;-51
2022/08/24 10:25:14;;;;;;;3.53;3.30;;;;;;;28.42;37.17;102054.81;5035467;28;20435;-48
2022/08/24 10:27:49;;;;;;;3.53;3.23;;;;;;;28.64;38.54;102057.13;5035261;28;20840;-48
2022/08/24 10:30:56;;;;;;;5.63;3.30;;;;;;;28.81;38.06;102054.81;5034734;28;20999;-51
2022/08/24 10:33:28;;;;;;;4.20;3.80;;;;;;;28.94;37.84;102056.94;5035250;28;20438;-53
2022/08/24 10:36:17;;;;;;;2.97;2.87;;;;;;;28.98;36.24;102056.03;5035242;28;20454;-50
2022/08/24 10:41:59;;;;;;;5.50;3.40;;;;;;;29.05;36.33;102051.06;5035080;28;20452;-48
2022/08/24 10:44:47;;;;;;;3.73;3.43;;;;;;;29.07;36.58;102053.50;5034888;28;20545;-47
2022/08/24 10:47:25;;;;;;;3.57;3.33;;;;;;;29.27;36.29;102056.06;5034641;28;20475;-51
2022/08/24 10:50:16;;;;;;;2.73;2.53;;;;;;;29.31;36.40;102067.31;5034626;28;20810;-49
2022/08/24 10:53:04;;;;;;;3.97;3.77;;;;;;;29.26;35.44;102053.63;5034338;28;20474;-51
2022/08/24 10:55:34;;;;;;;3.40;3.10;;;;;;;29.34;36.48;102053.81;5034745;28;20440;-48
2022/08/24 10:58:32;;;;;;;3.57;3.37;;;;;;;29.05;36.46;102055.72;5034685;28;20522;-49
2022/08/24 11:01:14;;;;;;;3.40;3.20;;;;;;;28.81;36.24;102044.66;5033657;28;20840;-47
2022/08/24 11:03:58;;;;;;;5.53;3.60;;;;;;;28.77;36.74;102060.06;5034245;28;20443;-50
2022/08/24 11:06:32;;;;;;;3.33;3.13;;;;;;;28.90;35.95;102053.94;5034544;28;20424;-55
2022/08/24 11:09:05;;;;;;;8.40;3.40;;;;;;;29.21;36.35;102053.66;5034110;28;20463;-48
2022/08/24 11:11:35;;;;;;;3.77;3.47;;;;;;;29.39;35.91;102058.44;5034340;28;20448;-49
2022/08/24 11:14:21;;;;;;;3.97;3.67;;;;;;;29.59;36.65;102058.22;5033323;28;20439;-53
2022/08/24 11:16:50;;;;;;;3.27;3.07;;;;;;;29.89;36.27;102054.31;5034174;28;20454;-51
2022/08/24 11:19:31;;;;;;;3.80;3.50;;;;;;;29.80;35.62;102054.13;5033784;28;20987;-47
2022/08/24 11:22:03;;;;;;;3.40;3.10;;;;;;;29.77;34.81;102051.97;5034066;28;20447;-57
2022/08/24 11:24:42;;;;;;;3.97;3.67;;;;;;;29.62;35.38;102057.63;5034139;28;20435;-46
2022/08/24 11:27:25;;;;;;;3.63;3.43;;;;;;;29.56;35.51;102054.13;5034137;28;20984;-52
2022/08/24 11:30:02;;;;;;;3.70;3.40;;;;;;;29.46;34.73;102048.75;5033787;28;20840;-49
2022/08/24 11:32:36;;;;;;;4.07;3.47;;;;;;;29.74;35.68;102047.06;5033757;28;20458;-51
2022/08/24 11:35:08;;;;;;;3.50;3.20;;;;;;;29.95;35.38;102050.41;5034043;28;20805;-49
2022/08/24 11:37:38;;;;;;;3.77;3.57;;;;;;;30.04;35.39;102045.88;5033719;28;20431;-50
2022/08/24 11:40:08;;;;;;;3.57;3.27;;;;;;;30.25;34.23;102046.41;5033513;28;20459;-50
2022/08/24 11:42:48;;;;;;;3.53;3.23;;;;;;;30.43;34.20;102045.63;5033521;28;20452;-52
2022/08/24 11:45:23;;;;;;;4.17;3.77;;;;;;;30.34;34.46;102052.88;5033821;28;20439;-49
2022/08/24 11:48:01;;;;;;;3.00;2.80;;;;;;;30.33;35.32;102049.31;5033551;28;20557;-49
2022/08/24 11:50:39;;;;;;;3.60;3.40;;;;;;;30.54;34.28;102044.34;5033403;28;20498;-47
2022/08/24 11:53:19;;;;;;;3.60;3.40;;;;;;;30.63;34.03;102053.56;5033114;28;20964;-46
2022/08/24 11:55:54;;;;;;;7.03;3.43;;;;;;;30.35;33.00;102040.75;5033959;28;20200;-49
2022/08/24 11:58:40;;;;;;;3.50;3.20;;;;;;;30.04;34.15;102046.69;5033741;28;20834;-53
2022/08/24 12:01:16;;;;;;;4.00;3.80;;;;;;;29.76;35.68;102038.50;5033282;28;20457;-48
2022/08/24 12:03:59;;;;;;;3.90;3.60;;;;;;;29.87;36.77;102040.84;5033563;28;20431;-49